sensor_id;sensor_type;location;lat;lon;timestamp;P1;durP1;ratioP1;P2;durP2;ratioP2
69588;SDS011;56792;50.644;17.984;2023-02-26T00:01:57;7.20;;;3.10;;
69588;SDS011;56792;50.644;17.984;2023-02-26T00:04:30;5.70;;;3.10;;
69588;SDS011;56792;50.644;17.984;2023-02-26T00:07:04;6.50;;;3.20;;
69588;SDS011;56792;50.644;17.984;2023-02-26T00:09:38;8.90;;;3.20;;
69588;SDS011;56792;50.644;17.984;2023-02-26T00:12:13;10.40;;;3.60;;
69588;SDS011;56792;50.644;17.984;2023-02-26T00:14:47;9.10;;;3.50;;
69588;SDS011;56792;50.644;17.984;2023-02-26T00:17:33;6.30;;;3.00;;
69588;SDS011;56792;50.644;17.984;2023-02-26T00:20:13;8.30;;;3.60;;
69588;SDS011;56792;50.644;17.984;2023-02-26T00:22:47;6.20;;;3.00;;
69588;SDS011;56792;50.644;17.984;2023-02-26T00:25:21;6.70;;;3.00;;
69588;SDS011;56792;50.644;17.984;2023-02-26T00:27:55;8.10;;;3.30;;
69588;SDS011;56792;50.644;17.984;2023-02-26T00:30:29;10.70;;;3.50;;
69588;SDS011;56792;50.644;17.984;2023-02-26T00:33:03;9.20;;;3.40;;
69588;SDS011;56792;50.644;17.984;2023-02-26T00:35:37;8.50;;;3.30;;
69588;SDS011;56792;50.644;17.984;2023-02-26T00:38:11;9.10;;;3.50;;
69588;SDS011;56792;50.644;17.984;2023-02-26T00:40:49;6.90;;;2.80;;
69588;SDS011;56792;50.644;17.984;2023-02-26T00:43:26;7.10;;;3.60;;
69588;SDS011;56792;50.644;17.984;2023-02-26T00:46:04;7.40;;;2.70;;
69588;SDS011;56792;50.644;17.984;2023-02-26T00:48:54;6.50;;;3.10;;
69588;SDS011;56792;50.644;17.984;2023-02-26T00:51:39;7.80;;;3.30;;
69588;SDS011;56792;50.644;17.984;2023-02-26T00:54:21;6.40;;;3.20;;
69588;SDS011;56792;50.644;17.984;2023-02-26T00:56:55;5.90;;;2.90;;
69588;SDS011;56792;50.644;17.984;2023-02-26T00:59:28;5.10;;;2.60;;
69588;SDS011;56792;50.644;17.984;2023-02-26T01:02:03;6.70;;;3.20;;
69588;SDS011;56792;50.644;17.984;2023-02-26T01:04:39;6.70;;;3.40;;
69588;SDS011;56792;50.644;17.984;2023-02-26T01:07:15;5.70;;;3.00;;
69588;SDS011;56792;50.644;17.984;2023-02-26T01:09:53;6.90;;;2.70;;
69588;SDS011;56792;50.644;17.984;2023-02-26T01:12:27;5.90;;;3.00;;
69588;SDS011;56792;50.644;17.984;2023-02-26T01:15:01;5.40;;;2.60;;
69588;SDS011;56792;50.644;17.984;2023-02-26T01:17:41;5.00;;;2.80;;
69588;SDS011;56792;50.644;17.984;2023-02-26T01:20:18;5.90;;;2.50;;
69588;SDS011;56792;50.644;17.984;2023-02-26T01:22:56;4.30;;;2.50;;
69588;SDS011;56792;50.644;17.984;2023-02-26T01:25:38;4.50;;;2.60;;
69588;SDS011;56792;50.644;17.984;2023-02-26T01:28:15;6.10;;;3.10;;
69588;SDS011;56792;50.644;17.984;2023-02-26T01:30:49;6.60;;;2.90;;
69588;SDS011;56792;50.644;17.984;2023-02-26T01:33:26;6.00;;;2.50;;
69588;SDS011;56792;50.644;17.984;2023-02-26T01:36:09;4.60;;;2.50;;
69588;SDS011;56792;50.644;17.984;2023-02-26T01:38:51;4.70;;;2.30;;
69588;SDS011;56792;50.644;17.984;2023-02-26T01:41:35;4.50;;;2.40;;
69588;SDS011;56792;50.644;17.984;2023-02-26T01:44:16;5.00;;;2.50;;
69588;SDS011;56792;50.644;17.984;2023-02-26T01:47:22;7.10;;;2.70;;
69588;SDS011;56792;50.644;17.984;2023-02-26T01:50:13;5.40;;;2.60;;
69588;SDS011;56792;50.644;17.984;2023-02-26T01:55:57;7.40;;;2.80;;
69588;SDS011;56792;50.644;17.984;2023-02-26T01:58:34;6.00;;;2.80;;
69588;SDS011;56792;50.644;17.984;2023-02-26T02:01:08;7.10;;;3.40;;
69588;SDS011;56792;50.644;17.984;2023-02-26T02:03:42;5.30;;;2.80;;
69588;SDS011;56792;50.644;17.984;2023-02-26T02:06:20;5.40;;;2.60;;
69588;SDS011;56792;50.644;17.984;2023-02-26T02:08:54;5.70;;;2.80;;
69588;SDS011;56792;50.644;17.984;2023-02-26T02:11:27;5.90;;;2.80;;
69588;SDS011;56792;50.644;17.984;2023-02-26T02:14:10;4.70;;;2.70;;
69588;SDS011;56792;50.644;17.984;2023-02-26T02:16:52;7.10;;;2.80;;
69588;SDS011;56792;50.644;17.984;2023-02-26T02:19:47;6.70;;;3.20;;
69588;SDS011;56792;50.644;17.984;2023-02-26T02:22:54;7.10;;;2.80;;
69588;SDS011;56792;50.644;17.984;2023-02-26T02:28:56;4.90;;;2.90;;
69588;SDS011;56792;50.644;17.984;2023-02-26T02:31:52;5.20;;;2.30;;
69588;SDS011;56792;50.644;17.984;2023-02-26T02:34:32;5.80;;;2.40;;
69588;SDS011;56792;50.644;17.984;2023-02-26T02:37:13;6.40;;;2.60;;
69588;SDS011;56792;50.644;17.984;2023-02-26T02:39:51;4.40;;;2.20;;
69588;SDS011;56792;50.644;17.984;2023-02-26T02:42:32;5.10;;;2.10;;
69588;SDS011;56792;50.644;17.984;2023-02-26T02:45:13;6.30;;;2.20;;
69588;SDS011;56792;50.644;17.984;2023-02-26T02:47:51;5.50;;;2.40;;
69588;SDS011;56792;50.644;17.984;2023-02-26T02:50:29;4.90;;;2.40;;
69588;SDS011;56792;50.644;17.984;2023-02-26T02:53:08;6.60;;;3.10;;
69588;SDS011;56792;50.644;17.984;2023-02-26T02:55:49;8.40;;;2.80;;
69588;SDS011;56792;50.644;17.984;2023-02-26T02:58:35;9.00;;;3.30;;
69588;SDS011;56792;50.644;17.984;2023-02-26T03:01:14;7.70;;;3.10;;
69588;SDS011;56792;50.644;17.984;2023-02-26T03:03:55;11.00;;;3.60;;
69588;SDS011;56792;50.644;17.984;2023-02-26T03:06:33;9.10;;;3.60;;
69588;SDS011;56792;50.644;17.984;2023-02-26T03:09:07;9.00;;;3.30;;
69588;SDS011;56792;50.644;17.984;2023-02-26T03:11:43;7.10;;;2.80;;
69588;SDS011;56792;50.644;17.984;2023-02-26T03:14:16;6.50;;;2.60;;
69588;SDS011;56792;50.644;17.984;2023-02-26T03:17:08;4.90;;;2.50;;
69588;SDS011;56792;50.644;17.984;2023-02-26T03:20:05;4.40;;;2.20;;
69588;SDS011;56792;50.644;17.984;2023-02-26T03:22:50;7.50;;;2.40;;
69588;SDS011;56792;50.644;17.984;2023-02-26T03:25:37;4.80;;;2.40;;
69588;SDS011;56792;50.644;17.984;2023-02-26T03:28:20;4.30;;;2.20;;
69588;SDS011;56792;50.644;17.984;2023-02-26T03:31:00;3.90;;;2.50;;
69588;SDS011;56792;50.644;17.984;2023-02-26T03:33:41;5.40;;;2.30;;
69588;SDS011;56792;50.644;17.984;2023-02-26T03:36:22;3.20;;;1.90;;
69588;SDS011;56792;50.644;17.984;2023-02-26T03:39:14;4.00;;;1.90;;
69588;SDS011;56792;50.644;17.984;2023-02-26T03:41:54;4.10;;;2.30;;
69588;SDS011;56792;50.644;17.984;2023-02-26T03:44:38;4.50;;;1.70;;
69588;SDS011;56792;50.644;17.984;2023-02-26T03:47:15;4.50;;;2.40;;
69588;SDS011;56792;50.644;17.984;2023-02-26T03:49:51;5.90;;;2.80;;
69588;SDS011;56792;50.644;17.984;2023-02-26T03:52:29;4.10;;;2.30;;
69588;SDS011;56792;50.644;17.984;2023-02-26T03:55:18;4.00;;;2.10;;
69588;SDS011;56792;50.644;17.984;2023-02-26T03:58:18;6.30;;;2.40;;
69588;SDS011;56792;50.644;17.984;2023-02-26T04:01:18;4.20;;;2.10;;
69588;SDS011;56792;50.644;17.984;2023-02-26T04:03:56;6.40;;;2.40;;
69588;SDS011;56792;50.644;17.984;2023-02-26T04:06:31;4.60;;;2.50;;
69588;SDS011;56792;50.644;17.984;2023-02-26T04:09:05;5.70;;;2.50;;
69588;SDS011;56792;50.644;17.984;2023-02-26T04:11:38;4.40;;;2.00;;
69588;SDS011;56792;50.644;17.984;2023-02-26T04:14:12;5.10;;;2.50;;
69588;SDS011;56792;50.644;17.984;2023-02-26T04:16:45;7.80;;;2.70;;
69588;SDS011;56792;50.644;17.984;2023-02-26T04:19:18;6.50;;;2.40;;
69588;SDS011;56792;50.644;17.984;2023-02-26T04:21:50;6.80;;;2.60;;
69588;SDS011;56792;50.644;17.984;2023-02-26T04:24:22;10.70;;;3.20;;
69588;SDS011;56792;50.644;17.984;2023-02-26T04:26:58;10.50;;;3.50;;
69588;SDS011;56792;50.644;17.984;2023-02-26T04:29:32;7.50;;;3.70;;
69588;SDS011;56792;50.644;17.984;2023-02-26T04:32:05;8.50;;;4.00;;
69588;SDS011;56792;50.644;17.984;2023-02-26T04:34:38;7.90;;;3.80;;
69588;SDS011;56792;50.644;17.984;2023-02-26T04:37:10;5.60;;;3.10;;
69588;SDS011;56792;50.644;17.984;2023-02-26T04:39:44;9.30;;;3.80;;
69588;SDS011;56792;50.644;17.984;2023-02-26T04:42:16;7.20;;;3.90;;
69588;SDS011;56792;50.644;17.984;2023-02-26T04:44:50;7.40;;;4.20;;
69588;SDS011;56792;50.644;17.984;2023-02-26T04:47:22;7.60;;;4.60;;
69588;SDS011;56792;50.644;17.984;2023-02-26T04:49:56;10.00;;;4.80;;
69588;SDS011;56792;50.644;17.984;2023-02-26T04:52:28;8.00;;;4.60;;
69588;SDS011;56792;50.644;17.984;2023-02-26T04:55:01;9.30;;;4.30;;
69588;SDS011;56792;50.644;17.984;2023-02-26T04:57:35;6.90;;;3.40;;
69588;SDS011;56792;50.644;17.984;2023-02-26T05:00:10;8.90;;;3.60;;
69588;SDS011;56792;50.644;17.984;2023-02-26T05:02:45;6.60;;;3.10;;
69588;SDS011;56792;50.644;17.984;2023-02-26T05:05:17;6.90;;;3.20;;
69588;SDS011;56792;50.644;17.984;2023-02-26T05:07:51;5.00;;;2.60;;
69588;SDS011;56792;50.644;17.984;2023-02-26T05:10:24;6.30;;;3.10;;
69588;SDS011;56792;50.644;17.984;2023-02-26T05:12:57;6.30;;;3.50;;
69588;SDS011;56792;50.644;17.984;2023-02-26T05:15:29;6.00;;;3.40;;
69588;SDS011;56792;50.644;17.984;2023-02-26T05:18:01;7.60;;;3.70;;
69588;SDS011;56792;50.644;17.984;2023-02-26T05:20:33;7.20;;;3.70;;
69588;SDS011;56792;50.644;17.984;2023-02-26T05:23:06;6.70;;;3.40;;
69588;SDS011;56792;50.644;17.984;2023-02-26T05:25:38;6.50;;;3.60;;
69588;SDS011;56792;50.644;17.984;2023-02-26T05:28:10;5.50;;;3.20;;
69588;SDS011;56792;50.644;17.984;2023-02-26T05:30:43;6.60;;;3.50;;
69588;SDS011;56792;50.644;17.984;2023-02-26T05:33:15;5.90;;;3.20;;
69588;SDS011;56792;50.644;17.984;2023-02-26T05:35:48;6.30;;;3.80;;
69588;SDS011;56792;50.644;17.984;2023-02-26T05:38:20;7.10;;;3.30;;
69588;SDS011;56792;50.644;17.984;2023-02-26T05:40:56;6.80;;;3.40;;
69588;SDS011;56792;50.644;17.984;2023-02-26T05:43:29;7.60;;;3.50;;
69588;SDS011;56792;50.644;17.984;2023-02-26T05:46:02;8.40;;;3.90;;
69588;SDS011;56792;50.644;17.984;2023-02-26T05:48:34;5.30;;;3.00;;
69588;SDS011;56792;50.644;17.984;2023-02-26T05:51:07;7.80;;;3.60;;
69588;SDS011;56792;50.644;17.984;2023-02-26T05:53:39;8.00;;;3.40;;
69588;SDS011;56792;50.644;17.984;2023-02-26T05:56:12;6.70;;;3.10;;
69588;SDS011;56792;50.644;17.984;2023-02-26T05:58:44;7.90;;;3.00;;
69588;SDS011;56792;50.644;17.984;2023-02-26T06:01:17;6.90;;;3.20;;
69588;SDS011;56792;50.644;17.984;2023-02-26T06:03:49;6.50;;;3.00;;
69588;SDS011;56792;50.644;17.984;2023-02-26T06:06:21;6.00;;;2.90;;
69588;SDS011;56792;50.644;17.984;2023-02-26T06:08:54;6.40;;;3.00;;
69588;SDS011;56792;50.644;17.984;2023-02-26T06:11:28;4.50;;;2.70;;
69588;SDS011;56792;50.644;17.984;2023-02-26T06:14:00;4.50;;;2.70;;
69588;SDS011;56792;50.644;17.984;2023-02-26T06:16:33;5.50;;;2.80;;
69588;SDS011;56792;50.644;17.984;2023-02-26T06:19:05;5.90;;;2.70;;
69588;SDS011;56792;50.644;17.984;2023-02-26T06:21:38;4.80;;;2.40;;
69588;SDS011;56792;50.644;17.984;2023-02-26T06:24:10;6.10;;;3.20;;
69588;SDS011;56792;50.644;17.984;2023-02-26T06:26:42;3.80;;;2.50;;
69588;SDS011;56792;50.644;17.984;2023-02-26T06:29:15;5.00;;;2.70;;
69588;SDS011;56792;50.644;17.984;2023-02-26T06:31:48;5.50;;;2.50;;
69588;SDS011;56792;50.644;17.984;2023-02-26T06:34:21;4.10;;;2.20;;
69588;SDS011;56792;50.644;17.984;2023-02-26T06:36:53;4.30;;;2.30;;
69588;SDS011;56792;50.644;17.984;2023-02-26T06:39:25;4.30;;;2.10;;
69588;SDS011;56792;50.644;17.984;2023-02-26T06:41:58;6.50;;;2.50;;
69588;SDS011;56792;50.644;17.984;2023-02-26T06:44:30;3.80;;;2.00;;
69588;SDS011;56792;50.644;17.984;2023-02-26T06:47:02;5.00;;;2.50;;
69588;SDS011;56792;50.644;17.984;2023-02-26T06:49:35;5.30;;;2.60;;
69588;SDS011;56792;50.644;17.984;2023-02-26T06:52:08;6.20;;;2.20;;
69588;SDS011;56792;50.644;17.984;2023-02-26T06:54:41;4.80;;;2.50;;
69588;SDS011;56792;50.644;17.984;2023-02-26T06:57:13;6.50;;;3.10;;
69588;SDS011;56792;50.644;17.984;2023-02-26T06:59:46;9.20;;;3.70;;
69588;SDS011;56792;50.644;17.984;2023-02-26T07:02:19;8.60;;;4.10;;
69588;SDS011;56792;50.644;17.984;2023-02-26T07:04:53;7.00;;;3.60;;
69588;SDS011;56792;50.644;17.984;2023-02-26T07:07:25;6.80;;;3.10;;
69588;SDS011;56792;50.644;17.984;2023-02-26T07:09:58;6.00;;;3.30;;
69588;SDS011;56792;50.644;17.984;2023-02-26T07:12:31;4.60;;;2.70;;
69588;SDS011;56792;50.644;17.984;2023-02-26T07:15:04;6.00;;;3.40;;
69588;SDS011;56792;50.644;17.984;2023-02-26T07:17:37;7.70;;;4.00;;
69588;SDS011;56792;50.644;17.984;2023-02-26T07:20:12;7.60;;;3.40;;
69588;SDS011;56792;50.644;17.984;2023-02-26T07:22:46;6.80;;;2.90;;
69588;SDS011;56792;50.644;17.984;2023-02-26T07:25:19;5.60;;;2.80;;
69588;SDS011;56792;50.644;17.984;2023-02-26T07:27:52;5.90;;;2.90;;
69588;SDS011;56792;50.644;17.984;2023-02-26T07:30:26;7.60;;;4.00;;
69588;SDS011;56792;50.644;17.984;2023-02-26T07:32:59;6.90;;;3.80;;
69588;SDS011;56792;50.644;17.984;2023-02-26T07:35:31;7.40;;;3.60;;
69588;SDS011;56792;50.644;17.984;2023-02-26T07:38:04;7.30;;;2.60;;
69588;SDS011;56792;50.644;17.984;2023-02-26T07:40:36;5.60;;;3.20;;
69588;SDS011;56792;50.644;17.984;2023-02-26T07:43:09;6.30;;;3.00;;
69588;SDS011;56792;50.644;17.984;2023-02-26T07:45:42;7.80;;;3.40;;
69588;SDS011;56792;50.644;17.984;2023-02-26T07:48:15;8.10;;;3.60;;
69588;SDS011;56792;50.644;17.984;2023-02-26T07:50:51;8.20;;;3.90;;
69588;SDS011;56792;50.644;17.984;2023-02-26T07:53:25;6.20;;;3.20;;
69588;SDS011;56792;50.644;17.984;2023-02-26T07:55:57;6.50;;;3.10;;
69588;SDS011;56792;50.644;17.984;2023-02-26T07:58:30;5.50;;;3.60;;
69588;SDS011;56792;50.644;17.984;2023-02-26T08:01:02;4.90;;;3.10;;
69588;SDS011;56792;50.644;17.984;2023-02-26T08:03:35;5.60;;;4.00;;
69588;SDS011;56792;50.644;17.984;2023-02-26T08:06:08;5.70;;;3.20;;
69588;SDS011;56792;50.644;17.984;2023-02-26T08:08:40;7.40;;;4.30;;
69588;SDS011;56792;50.644;17.984;2023-02-26T08:11:13;5.30;;;3.30;;
69588;SDS011;56792;50.644;17.984;2023-02-26T08:13:45;6.40;;;3.50;;
69588;SDS011;56792;50.644;17.984;2023-02-26T08:16:18;6.50;;;3.40;;
69588;SDS011;56792;50.644;17.984;2023-02-26T08:18:51;5.90;;;3.70;;
69588;SDS011;56792;50.644;17.984;2023-02-26T08:21:23;6.20;;;4.10;;
69588;SDS011;56792;50.644;17.984;2023-02-26T08:23:56;5.50;;;3.70;;
69588;SDS011;56792;50.644;17.984;2023-02-26T08:26:28;8.80;;;4.40;;
69588;SDS011;56792;50.644;17.984;2023-02-26T08:29:04;5.90;;;4.20;;
69588;SDS011;56792;50.644;17.984;2023-02-26T08:31:37;6.50;;;4.00;;
69588;SDS011;56792;50.644;17.984;2023-02-26T08:34:10;6.90;;;4.60;;
69588;SDS011;56792;50.644;17.984;2023-02-26T08:36:42;7.80;;;4.50;;
69588;SDS011;56792;50.644;17.984;2023-02-26T08:39:15;7.70;;;4.20;;
69588;SDS011;56792;50.644;17.984;2023-02-26T08:41:47;5.00;;;3.70;;
69588;SDS011;56792;50.644;17.984;2023-02-26T08:44:19;6.50;;;4.30;;
69588;SDS011;56792;50.644;17.984;2023-02-26T08:46:52;7.50;;;4.30;;
69588;SDS011;56792;50.644;17.984;2023-02-26T08:49:24;6.80;;;4.00;;
69588;SDS011;56792;50.644;17.984;2023-02-26T08:51:56;11.30;;;5.80;;
69588;SDS011;56792;50.644;17.984;2023-02-26T08:54:28;11.80;;;5.20;;
69588;SDS011;56792;50.644;17.984;2023-02-26T08:57:01;9.50;;;4.80;;
69588;SDS011;56792;50.644;17.984;2023-02-26T08:59:34;8.30;;;4.10;;
69588;SDS011;56792;50.644;17.984;2023-02-26T09:02:14;8.00;;;4.60;;
69588;SDS011;56792;50.644;17.984;2023-02-26T09:04:47;6.90;;;4.00;;
69588;SDS011;56792;50.644;17.984;2023-02-26T09:07:19;7.40;;;4.00;;
69588;SDS011;56792;50.644;17.984;2023-02-26T09:09:53;7.30;;;4.00;;
69588;SDS011;56792;50.644;17.984;2023-02-26T09:12:25;7.10;;;3.10;;
69588;SDS011;56792;50.644;17.984;2023-02-26T09:14:57;8.00;;;3.60;;
69588;SDS011;56792;50.644;17.984;2023-02-26T09:17:31;7.10;;;4.40;;
69588;SDS011;56792;50.644;17.984;2023-02-26T09:20:05;8.00;;;5.20;;
69588;SDS011;56792;50.644;17.984;2023-02-26T09:22:39;8.90;;;5.10;;
69588;SDS011;56792;50.644;17.984;2023-02-26T09:25:13;9.50;;;5.20;;
69588;SDS011;56792;50.644;17.984;2023-02-26T09:27:45;10.80;;;5.80;;
69588;SDS011;56792;50.644;17.984;2023-02-26T09:30:19;9.50;;;4.80;;
69588;SDS011;56792;50.644;17.984;2023-02-26T09:32:52;11.30;;;5.60;;
69588;SDS011;56792;50.644;17.984;2023-02-26T09:35:25;7.10;;;4.10;;
69588;SDS011;56792;50.644;17.984;2023-02-26T09:37:58;8.80;;;4.60;;
69588;SDS011;56792;50.644;17.984;2023-02-26T09:40:41;10.70;;;4.40;;
69588;SDS011;56792;50.644;17.984;2023-02-26T09:43:32;9.50;;;4.70;;
69588;SDS011;56792;50.644;17.984;2023-02-26T09:46:17;11.40;;;4.60;;
69588;SDS011;56792;50.644;17.984;2023-02-26T09:49:06;11.40;;;5.10;;
69588;SDS011;56792;50.644;17.984;2023-02-26T09:51:49;10.80;;;5.90;;
69588;SDS011;56792;50.644;17.984;2023-02-26T09:54:27;12.40;;;6.50;;
69588;SDS011;56792;50.644;17.984;2023-02-26T09:57:01;11.00;;;6.00;;
69588;SDS011;56792;50.644;17.984;2023-02-26T09:59:42;11.30;;;6.00;;
69588;SDS011;56792;50.644;17.984;2023-02-26T10:02:18;8.70;;;5.40;;
69588;SDS011;56792;50.644;17.984;2023-02-26T10:05:06;6.10;;;4.20;;
69588;SDS011;56792;50.644;17.984;2023-02-26T10:07:57;6.10;;;3.90;;
69588;SDS011;56792;50.644;17.984;2023-02-26T10:10:42;4.40;;;3.70;;
69588;SDS011;56792;50.644;17.984;2023-02-26T10:13:24;6.50;;;4.60;;
69588;SDS011;56792;50.644;17.984;2023-02-26T10:16:08;6.50;;;3.40;;
69588;SDS011;56792;50.644;17.984;2023-02-26T10:18:50;7.80;;;4.40;;
69588;SDS011;56792;50.644;17.984;2023-02-26T10:21:29;7.20;;;4.50;;
69588;SDS011;56792;50.644;17.984;2023-02-26T10:24:10;7.40;;;3.90;;
69588;SDS011;56792;50.644;17.984;2023-02-26T10:26:53;7.60;;;3.80;;
69588;SDS011;56792;50.644;17.984;2023-02-26T10:29:35;6.60;;;3.50;;
69588;SDS011;56792;50.644;17.984;2023-02-26T10:32:23;4.80;;;3.10;;
69588;SDS011;56792;50.644;17.984;2023-02-26T10:35:02;5.50;;;2.60;;
69588;SDS011;56792;50.644;17.984;2023-02-26T10:37:46;6.00;;;3.30;;
69588;SDS011;56792;50.644;17.984;2023-02-26T10:40:26;6.60;;;4.40;;
69588;SDS011;56792;50.644;17.984;2023-02-26T10:43:12;5.90;;;3.90;;
69588;SDS011;56792;50.644;17.984;2023-02-26T10:46:03;7.60;;;4.80;;
69588;SDS011;56792;50.644;17.984;2023-02-26T10:48:57;6.80;;;3.20;;
69588;SDS011;56792;50.644;17.984;2023-02-26T10:51:43;6.50;;;3.20;;
69588;SDS011;56792;50.644;17.984;2023-02-26T10:54:21;6.60;;;3.60;;
69588;SDS011;56792;50.644;17.984;2023-02-26T10:56:59;8.90;;;3.60;;
69588;SDS011;56792;50.644;17.984;2023-02-26T10:59:33;5.60;;;3.10;;
69588;SDS011;56792;50.644;17.984;2023-02-26T11:02:33;7.50;;;3.80;;
69588;SDS011;56792;50.644;17.984;2023-02-26T11:05:19;9.70;;;4.40;;
69588;SDS011;56792;50.644;17.984;2023-02-26T11:07:59;8.50;;;3.80;;
69588;SDS011;56792;50.644;17.984;2023-02-26T11:10:41;10.60;;;4.30;;
69588;SDS011;56792;50.644;17.984;2023-02-26T11:13:18;10.60;;;4.20;;
69588;SDS011;56792;50.644;17.984;2023-02-26T11:15:57;11.30;;;4.80;;
69588;SDS011;56792;50.644;17.984;2023-02-26T11:18:34;8.00;;;4.30;;
69588;SDS011;56792;50.644;17.984;2023-02-26T11:21:18;7.30;;;3.40;;
69588;SDS011;56792;50.644;17.984;2023-02-26T11:23:57;5.20;;;2.90;;
69588;SDS011;56792;50.644;17.984;2023-02-26T11:26:35;7.40;;;3.30;;
69588;SDS011;56792;50.644;17.984;2023-02-26T11:29:16;7.30;;;4.00;;
69588;SDS011;56792;50.644;17.984;2023-02-26T11:31:54;8.50;;;3.60;;
69588;SDS011;56792;50.644;17.984;2023-02-26T11:34:31;5.40;;;3.10;;
69588;SDS011;56792;50.644;17.984;2023-02-26T11:37:07;5.60;;;3.50;;
69588;SDS011;56792;50.644;17.984;2023-02-26T11:39:41;5.80;;;3.20;;
69588;SDS011;56792;50.644;17.984;2023-02-26T11:42:17;7.60;;;3.60;;
69588;SDS011;56792;50.644;17.984;2023-02-26T11:44:53;8.10;;;3.90;;
69588;SDS011;56792;50.644;17.984;2023-02-26T11:47:32;10.90;;;4.30;;
69588;SDS011;56792;50.644;17.984;2023-02-26T11:50:15;6.90;;;3.90;;
69588;SDS011;56792;50.644;17.984;2023-02-26T11:53:03;7.10;;;3.20;;
69588;SDS011;56792;50.644;17.984;2023-02-26T11:55:42;5.90;;;3.00;;
69588;SDS011;56792;50.644;17.984;2023-02-26T11:58:20;10.70;;;4.10;;
69588;SDS011;56792;50.644;17.984;2023-02-26T12:00:56;7.70;;;3.90;;
69588;SDS011;56792;50.644;17.984;2023-02-26T12:03:33;8.80;;;4.20;;
69588;SDS011;56792;50.644;17.984;2023-02-26T12:06:18;10.50;;;4.90;;
69588;SDS011;56792;50.644;17.984;2023-02-26T12:08:57;14.00;;;6.30;;
69588;SDS011;56792;50.644;17.984;2023-02-26T12:11:45;10.40;;;4.70;;
69588;SDS011;56792;50.644;17.984;2023-02-26T12:14:53;6.90;;;3.90;;
69588;SDS011;56792;50.644;17.984;2023-02-26T12:17:47;7.70;;;3.70;;
69588;SDS011;56792;50.644;17.984;2023-02-26T12:20:43;9.30;;;3.50;;
69588;SDS011;56792;50.644;17.984;2023-02-26T12:23:54;7.30;;;3.40;;
69588;SDS011;56792;50.644;17.984;2023-02-26T12:26:43;7.80;;;3.90;;
69588;SDS011;56792;50.644;17.984;2023-02-26T12:29:36;10.80;;;4.50;;
69588;SDS011;56792;50.644;17.984;2023-02-26T12:32:49;7.20;;;3.90;;
69588;SDS011;56792;50.644;17.984;2023-02-26T12:35:46;8.70;;;3.30;;
69588;SDS011;56792;50.644;17.984;2023-02-26T12:38:37;8.80;;;3.70;;
69588;SDS011;56792;50.644;17.984;2023-02-26T12:41:39;8.20;;;3.80;;
69588;SDS011;56792;50.644;17.984;2023-02-26T12:44:40;7.10;;;3.80;;
69588;SDS011;56792;50.644;17.984;2023-02-26T12:47:37;6.50;;;4.10;;
69588;SDS011;56792;50.644;17.984;2023-02-26T12:50:33;7.50;;;3.70;;
69588;SDS011;56792;50.644;17.984;2023-02-26T12:53:55;10.00;;;3.70;;
69588;SDS011;56792;50.644;17.984;2023-02-26T13:03:26;9.20;;;3.40;;
69588;SDS011;56792;50.644;17.984;2023-02-26T13:06:46;7.50;;;2.70;;
69588;SDS011;56792;50.644;17.984;2023-02-26T13:09:49;8.80;;;3.30;;
69588;SDS011;56792;50.644;17.984;2023-02-26T13:12:44;7.50;;;3.80;;
69588;SDS011;56792;50.644;17.984;2023-02-26T13:15:42;5.80;;;3.10;;
69588;SDS011;56792;50.644;17.984;2023-02-26T13:18:34;10.00;;;4.10;;
69588;SDS011;56792;50.644;17.984;2023-02-26T13:21:16;7.70;;;4.00;;
69588;SDS011;56792;50.644;17.984;2023-02-26T13:23:58;8.00;;;3.70;;
69588;SDS011;56792;50.644;17.984;2023-02-26T13:26:37;14.90;;;4.60;;
69588;SDS011;56792;50.644;17.984;2023-02-26T13:29:16;9.20;;;4.30;;
69588;SDS011;56792;50.644;17.984;2023-02-26T13:31:58;7.30;;;4.00;;
69588;SDS011;56792;50.644;17.984;2023-02-26T13:34:41;11.40;;;5.20;;
69588;SDS011;56792;50.644;17.984;2023-02-26T13:37:24;10.90;;;4.50;;
69588;SDS011;56792;50.644;17.984;2023-02-26T13:40:32;10.90;;;5.00;;
69588;SDS011;56792;50.644;17.984;2023-02-26T13:43:31;9.00;;;4.10;;
69588;SDS011;56792;50.644;17.984;2023-02-26T13:46:23;11.00;;;5.00;;
69588;SDS011;56792;50.644;17.984;2023-02-26T13:49:14;14.10;;;4.90;;
69588;SDS011;56792;50.644;17.984;2023-02-26T13:51:57;10.10;;;4.20;;
69588;SDS011;56792;50.644;17.984;2023-02-26T13:54:44;9.90;;;4.00;;
69588;SDS011;56792;50.644;17.984;2023-02-26T13:57:35;7.60;;;3.60;;
69588;SDS011;56792;50.644;17.984;2023-02-26T14:00:30;12.30;;;4.40;;
69588;SDS011;56792;50.644;17.984;2023-02-26T14:03:27;9.50;;;4.80;;
69588;SDS011;56792;50.644;17.984;2023-02-26T14:06:35;9.50;;;4.60;;
69588;SDS011;56792;50.644;17.984;2023-02-26T14:09:35;10.20;;;4.50;;
69588;SDS011;56792;50.644;17.984;2023-02-26T14:12:35;9.00;;;3.70;;
69588;SDS011;56792;50.644;17.984;2023-02-26T14:15:42;9.30;;;4.10;;
69588;SDS011;56792;50.644;17.984;2023-02-26T14:18:39;9.60;;;4.20;;
69588;SDS011;56792;50.644;17.984;2023-02-26T14:21:47;11.40;;;4.70;;
69588;SDS011;56792;50.644;17.984;2023-02-26T14:24:33;10.90;;;4.70;;
69588;SDS011;56792;50.644;17.984;2023-02-26T14:27:31;10.60;;;5.50;;
69588;SDS011;56792;50.644;17.984;2023-02-26T14:30:18;9.30;;;4.40;;
69588;SDS011;56792;50.644;17.984;2023-02-26T14:33:12;11.30;;;5.20;;
69588;SDS011;56792;50.644;17.984;2023-02-26T14:35:51;19.90;;;8.10;;
69588;SDS011;56792;50.644;17.984;2023-02-26T14:38:33;13.50;;;6.00;;
69588;SDS011;56792;50.644;17.984;2023-02-26T14:41:18;11.60;;;6.30;;
69588;SDS011;56792;50.644;17.984;2023-02-26T14:44:01;11.40;;;5.50;;
69588;SDS011;56792;50.644;17.984;2023-02-26T14:46:50;8.80;;;4.10;;
69588;SDS011;56792;50.644;17.984;2023-02-26T14:49:36;12.40;;;5.70;;
69588;SDS011;56792;50.644;17.984;2023-02-26T14:52:48;16.80;;;8.20;;
69588;SDS011;56792;50.644;17.984;2023-02-26T14:55:46;8.20;;;3.90;;
69588;SDS011;56792;50.644;17.984;2023-02-26T15:02:08;10.20;;;4.70;;
69588;SDS011;56792;50.644;17.984;2023-02-26T15:05:13;12.10;;;5.70;;
69588;SDS011;56792;50.644;17.984;2023-02-26T15:11:41;9.80;;;4.70;;
69588;SDS011;56792;50.644;17.984;2023-02-26T15:15:07;12.80;;;6.00;;
69588;SDS011;56792;50.644;17.984;2023-02-26T15:18:04;16.70;;;6.70;;
69588;SDS011;56792;50.644;17.984;2023-02-26T15:21:02;25.90;;;9.80;;
69588;SDS011;56792;50.644;17.984;2023-02-26T15:23:45;21.40;;;8.10;;
69588;SDS011;56792;50.644;17.984;2023-02-26T15:26:25;11.10;;;5.60;;
69588;SDS011;56792;50.644;17.984;2023-02-26T15:29:08;11.10;;;5.90;;
69588;SDS011;56792;50.644;17.984;2023-02-26T15:31:50;15.00;;;5.90;;
69588;SDS011;56792;50.644;17.984;2023-02-26T15:34:29;11.40;;;5.20;;
69588;SDS011;56792;50.644;17.984;2023-02-26T15:37:16;11.20;;;5.40;;
69588;SDS011;56792;50.644;17.984;2023-02-26T15:39:58;9.10;;;4.80;;
69588;SDS011;56792;50.644;17.984;2023-02-26T15:42:50;9.30;;;4.30;;
69588;SDS011;56792;50.644;17.984;2023-02-26T15:45:31;11.70;;;5.00;;
69588;SDS011;56792;50.644;17.984;2023-02-26T15:48:14;10.60;;;4.90;;
69588;SDS011;56792;50.644;17.984;2023-02-26T15:50:54;12.70;;;4.70;;
69588;SDS011;56792;50.644;17.984;2023-02-26T15:53:35;15.40;;;5.40;;
69588;SDS011;56792;50.644;17.984;2023-02-26T15:56:20;19.90;;;6.70;;
69588;SDS011;56792;50.644;17.984;2023-02-26T15:59:07;22.90;;;8.80;;
69588;SDS011;56792;50.644;17.984;2023-02-26T16:01:50;23.40;;;8.00;;
69588;SDS011;56792;50.644;17.984;2023-02-26T16:04:26;12.10;;;6.10;;
69588;SDS011;56792;50.644;17.984;2023-02-26T16:07:01;12.30;;;5.80;;
69588;SDS011;56792;50.644;17.984;2023-02-26T16:09:40;11.00;;;5.40;;